Time;durP1;ratioP1;P1;durP2;ratioP2;P2;SDS_P1;SDS_P2;PMS_P1;PMS_P2;Temp;Humidity;BMP_temperature;BMP_pressure;BME280_temperature;BME280_humidity;BME280_pressure;Samples;Min_cycle;Max_cycle;Signal;HPM_P1;HPM_P2
2021/01/15 00:01:19;;;;;;;8.83;6.30;;;1.30;49.20;;;;;;5069902;28;39157;-81
2021/01/15 00:03:49;;;;;;;7.43;5.53;;;1.40;48.50;;;;;;5048773;28;36657;-81
2021/01/15 00:06:21;;;;;;;7.83;6.23;;;1.30;48.10;;;;;;5051514;28;36540;-80
2021/01/15 00:08:49;;;;;;;8.50;5.80;;;1.30;48.10;;;;;;5050038;28;38687;-82
2021/01/15 00:11:24;;;;;;;6.03;5.30;;;1.30;48.30;;;;;;5068454;28;40095;-82
2021/01/15 00:13:53;;;;;;;8.77;6.23;;;1.30;48.20;;;;;;5066950;28;38678;-81
2021/01/15 00:16:22;;;;;;;6.40;5.50;;;1.30;48.10;;;;;;5052186;28;36858;-83
2021/01/15 00:18:50;;;;;;;7.57;5.50;;;1.30;48.10;;;;;;5048718;28;39426;-80
2021/01/15 00:21:26;;;;;;;8.13;5.90;;;1.40;47.80;;;;;;5067456;28;39495;-81
2021/01/15 00:23:54;;;;;;;9.73;5.40;;;1.30;47.60;;;;;;5067366;28;37951;-81
2021/01/15 00:26:22;;;;;;;6.20;5.23;;;1.30;47.60;;;;;;5052798;28;36198;-81
2021/01/15 00:28:53;;;;;;;7.13;5.10;;;1.30;47.20;;;;;;5052093;28;39607;-81
2021/01/15 00:31:27;;;;;;;7.57;5.23;;;1.30;47.30;;;;;;5052225;28;38033;-82
2021/01/15 00:33:54;;;;;;;7.30;4.37;;;1.20;46.90;;;;;;5066947;28;37585;-81
2021/01/15 00:36:21;;;;;;;6.47;4.77;;;1.10;46.90;;;;;;5070136;28;36878;-81
2021/01/15 00:38:48;;;;;;;6.90;4.67;;;1.20;46.70;;;;;;5050573;28;39217;-82
2021/01/15 00:41:15;;;;;;;5.57;4.27;;;1.20;46.70;;;;;;5070442;28;38862;-82
2021/01/15 00:43:42;;;;;;;7.23;4.60;;;1.20;46.50;;;;;;5068744;28;38665;-81
2021/01/15 00:46:27;;;;;;;5.30;4.03;;;1.20;46.30;;;;;;5047601;28;36078;-81
2021/01/15 00:48:57;;;;;;;6.10;4.00;;;1.30;45.50;;;;;;5052334;28;38559;-82
2021/01/15 00:51:29;;;;;;;8.53;4.40;;;1.20;45.80;;;;;;5051364;28;37714;-81
2021/01/15 00:53:56;;;;;;;5.13;4.00;;;1.10;45.70;;;;;;5067588;28;38222;-81
2021/01/15 00:56:23;;;;;;;5.13;3.90;;;1.20;45.90;;;;;;5050337;28;35682;-81
2021/01/15 00:58:51;;;;;;;5.27;3.77;;;1.20;45.40;;;;;;5067082;28;39369;-81
2021/01/15 01:01:25;;;;;;;5.10;3.57;;;1.20;45.00;;;;;;5052728;28;38062;-81
2021/01/15 01:03:55;;;;;;;7.40;3.70;;;1.10;45.30;;;;;;5051621;28;38035;-81
2021/01/15 01:06:23;;;;;;;5.97;3.47;;;1.20;45.30;;;;;;5070135;28;36157;-82
2021/01/15 01:08:50;;;;;;;3.60;3.10;;;1.10;44.80;;;;;;5046378;28;38468;-81
2021/01/15 01:11:20;;;;;;;3.80;2.83;;;1.10;44.60;;;;;;5052685;28;37812;-81
2021/01/15 01:13:48;;;;;;;4.10;3.00;;;1.20;44.30;;;;;;5069003;28;37896;-81
2021/01/15 01:16:16;;;;;;;3.57;3.00;;;1.20;44.40;;;;;;5053621;28;35929;-84
2021/01/15 01:18:44;;;;;;;3.60;2.63;;;1.10;44.30;;;;;;5070559;28;40358;-83
2021/01/15 01:21:15;;;;;;;3.20;2.87;;;1.10;44.30;;;;;;5067668;28;39901;-80
2021/01/15 01:23:42;;;;;;;3.10;2.40;;;1.20;44.10;;;;;;5072497;28;38681;-81
2021/01/15 01:26:11;;;;;;;3.27;2.20;;;1.20;43.90;;;;;;5071572;28;37146;-81
2021/01/15 01:28:42;;;;;;;4.03;2.30;;;1.20;43.90;;;;;;5067709;28;40650;-81
2021/01/15 01:31:09;;;;;;;3.97;2.03;;;1.20;43.60;;;;;;5071808;28;38954;-81
2021/01/15 01:33:37;;;;;;;3.53;2.53;;;1.10;43.00;;;;;;5072113;28;38923;-83
2021/01/15 01:36:06;;;;;;;4.30;2.50;;;1.10;43.30;;;;;;5055489;28;35939;-81
2021/01/15 01:38:33;;;;;;;3.70;3.30;;;1.10;43.30;;;;;;5072673;28;39641;-81
2021/01/15 01:41:01;;;;;;;3.00;2.30;;;1.10;43.30;;;;;;5071738;28;38769;-81
2021/01/15 01:43:31;;;;;;;2.40;1.80;;;1.10;43.20;;;;;;5065201;28;37957;-83
2021/01/15 01:46:03;;;;;;;3.60;2.50;;;1.10;43.20;;;;;;5071187;28;37125;-82
2021/01/15 01:48:30;;;;;;;3.20;2.50;;;1.00;42.90;;;;;;5071084;28;40390;-82
2021/01/15 01:50:57;;;;;;;2.40;2.20;;;1.00;42.90;;;;;;5067287;28;38832;-82
2021/01/15 01:53:30;;;;;;;2.30;2.10;;;1.10;42.90;;;;;;5070858;28;37285;-82
2021/01/15 01:55:58;;;;;;;3.60;2.40;;;1.00;42.60;;;;;;5068916;28;37696;-82
2021/01/15 01:58:27;;;;;;;3.17;2.10;;;1.10;42.60;;;;;;5037961;28;39756;-82
2021/01/15 02:00:59;;;;;;;3.93;2.50;;;1.10;42.60;;;;;;5072915;28;39220;-82
2021/01/15 02:03:27;;;;;;;2.17;1.97;;;1.10;42.60;;;;;;5051373;28;36796;-83
2021/01/15 02:05:54;;;;;;;3.67;2.00;;;1.00;42.90;;;;;;5052991;28;36333;-82
2021/01/15 02:08:21;;;;;;;2.47;2.17;;;1.00;42.80;;;;;;5073104;28;39159;-83
2021/01/15 02:10:59;;;;;;;2.50;2.30;;;1.00;43.00;;;;;;5067490;28;39051;-83
2021/01/15 02:13:34;;;;;;;4.67;2.13;;;0.90;43.00;;;;;;5068281;28;38192;-82
2021/01/15 02:16:03;;;;;;;2.90;2.13;;;0.80;43.40;;;;;;5052588;28;36007;-83
2021/01/15 02:18:33;;;;;;;3.10;2.70;;;0.80;43.60;;;;;;5068088;28;40254;-82
2021/01/15 02:21:37;;;;;;;2.70;2.30;;;0.80;43.70;;;;;;5067486;28;38686;-82
2021/01/15 02:24:14;;;;;;;3.93;2.50;;;0.70;43.80;;;;;;5028016;28;36868;-82
2021/01/15 02:27:19;;;;;;;2.43;2.23;;;0.70;43.60;;;;;;5063786;28;35167;-83
2021/01/15 02:30:03;;;;;;;3.10;2.30;;;0.70;43.80;;;;;;5048497;28;38650;-82
2021/01/15 02:32:43;;;;;;;3.47;2.37;;;0.60;43.80;;;;;;5065975;28;37735;-83
2021/01/15 02:35:24;;;;;;;3.27;2.60;;;0.60;44.10;;;;;;5047944;28;37797;-82
2021/01/15 02:38:13;;;;;;;2.90;2.20;;;0.60;44.20;;;;;;5069500;28;37650;-82
2021/01/15 02:40:45;;;;;;;3.07;2.50;;;0.50;44.40;;;;;;5066041;28;38223;-82
2021/01/15 02:43:13;;;;;;;2.90;2.60;;;0.40;44.70;;;;;;5068126;28;39049;-82
2021/01/15 02:45:41;;;;;;;4.10;2.87;;;0.50;44.70;;;;;;5072681;28;38522;-82
2021/01/15 02:48:16;;;;;;;2.50;2.30;;;0.40;44.80;;;;;;5068027;28;36962;-82
2021/01/15 02:50:47;;;;;;;5.40;2.60;;;0.40;44.80;;;;;;5062087;28;39441;-82
2021/01/15 02:53:15;;;;;;;3.10;2.80;;;0.40;44.90;;;;;;5052903;28;38136;-82
2021/01/15 02:55:42;;;;;;;4.93;3.03;;;0.30;45.00;;;;;;5067135;28;37945;-82
2021/01/15 02:58:09;;;;;;;3.77;2.60;;;0.30;45.10;;;;;;5051139;28;36087;-83
2021/01/15 03:00:36;;;;;;;5.60;3.20;;;0.20;45.10;;;;;;5069326;28;40177;-82
2021/01/15 03:03:14;;;;;;;2.50;2.30;;;0.20;45.30;;;;;;5071401;28;39969;-83
2021/01/15 03:05:50;;;;;;;3.43;2.97;;;0.10;45.40;;;;;;5046476;28;37788;-81
2021/01/15 03:08:20;;;;;;;4.37;2.70;;;0.20;45.40;;;;;;5068402;28;37198;-81
2021/01/15 03:10:50;;;;;;;5.20;2.50;;;0.10;45.30;;;;;;5054085;28;38353;-82
2021/01/15 03:13:18;;;;;;;4.20;2.90;;;0.10;45.50;;;;;;5068437;28;39414;-82
2021/01/15 03:15:47;;;;;;;3.13;2.53;;;0.00;45.40;;;;;;5060320;28;38174;-82
2021/01/15 03:18:17;;;;;;;4.30;2.60;;;0.00;45.40;;;;;;5070322;28;37050;-82
2021/01/15 03:20:44;;;;;;;3.10;2.40;;;0.00;45.40;;;;;;5071771;28;40260;-82
2021/01/15 03:23:11;;;;;;;4.57;2.33;;;0.00;45.40;;;;;;5072111;28;39713;-82
2021/01/15 03:25:38;;;;;;;3.40;2.63;;;-0.10;45.30;;;;;;5071123;28;38695;-82
2021/01/15 03:28:05;;;;;;;3.10;2.80;;;-0.10;45.60;;;;;;5068205;28;37365;-82
2021/01/15 03:30:32;;;;;;;4.07;3.47;;;-0.10;45.70;;;;;;5070157;28;39094;-82
2021/01/15 03:33:00;;;;;;;3.47;2.70;;;-0.10;45.60;;;;;;5074770;28;39725;-82
2021/01/15 03:35:30;;;;;;;3.50;2.43;;;-0.20;45.70;;;;;;5065399;28;37714;-82
2021/01/15 03:37:58;;;;;;;3.70;2.83;;;-0.20;45.80;;;;;;5044248;28;36058;-82
2021/01/15 03:40:26;;;;;;;4.00;2.90;;;-0.20;45.70;;;;;;5048276;28;39983;-81
2021/01/15 03:42:53;;;;;;;3.10;2.80;;;-0.30;45.90;;;;;;5067283;28;39877;-81
2021/01/15 03:45:20;;;;;;;2.40;2.10;;;-0.30;45.80;;;;;;5070000;28;37906;-82
2021/01/15 03:47:47;;;;;;;4.07;3.03;;;-0.30;45.90;;;;;;5051356;28;36980;-83
2021/01/15 03:50:16;;;;;;;3.60;2.60;;;-0.30;45.70;;;;;;5061891;28;39574;-82
2021/01/15 03:52:46;;;;;;;4.63;2.70;;;-0.30;46.00;;;;;;5066577;28;38969;-83
2021/01/15 03:55:14;;;;;;;6.37;2.87;;;-0.40;46.20;;;;;;5074445;28;38016;-83
2021/01/15 03:57:46;;;;;;;3.10;2.40;;;-0.40;46.40;;;;;;5069695;28;37125;-82
2021/01/15 04:00:14;;;;;;;4.77;3.30;;;-0.50;46.70;;;;;;5078483;28;39195;-82
2021/01/15 04:02:41;;;;;;;4.73;3.40;;;-0.50;46.80;;;;;;5084308;28;38519;-83
2021/01/15 04:05:11;;;;;;;3.77;3.03;;;-0.50;46.80;;;;;;5066312;28;37604;-82
2021/01/15 04:07:38;;;;;;;5.47;2.80;;;-0.60;47.20;;;;;;5068097;28;34955;-83
2021/01/15 04:10:09;;;;;;;5.30;2.90;;;-0.70;47.40;;;;;;5065851;28;38912;-83
2021/01/15 04:12:36;;;;;;;4.03;3.10;;;-0.80;47.80;;;;;;5065923;28;38541;-83
2021/01/15 04:15:04;;;;;;;6.00;3.03;;;-0.80;47.80;;;;;;5082622;28;37003;-83
2021/01/15 04:17:31;;;;;;;4.20;3.40;;;-0.80;48.00;;;;;;5056842;28;36089;-82
2021/01/15 04:19:58;;;;;;;4.27;2.93;;;-0.70;48.20;;;;;;5071343;28;39656;-83
2021/01/15 04:22:26;;;;;;;3.77;3.10;;;-0.70;48.20;;;;;;5054263;28;37767;-82
2021/01/15 04:24:53;;;;;;;6.50;3.80;;;-0.70;48.10;;;;;;5070028;28;38848;-83
2021/01/15 04:27:20;;;;;;;4.47;3.43;;;-0.80;48.30;;;;;;5052128;28;36252;-82
2021/01/15 04:29:47;;;;;;;3.90;3.30;;;-0.80;48.30;;;;;;5069616;28;39501;-82
2021/01/15 04:32:14;;;;;;;3.73;3.30;;;-0.80;48.50;;;;;;5071275;28;38248;-83
2021/01/15 04:34:44;;;;;;;8.73;3.97;;;-0.80;48.50;;;;;;5065042;28;38756;-82
2021/01/15 04:37:11;;;;;;;7.10;3.07;;;-0.90;48.50;;;;;;5071293;28;36897;-82
2021/01/15 04:39:38;;;;;;;3.00;2.70;;;-1.00;48.80;;;;;;5056046;28;38742;-82
2021/01/15 04:42:08;;;;;;;4.20;3.80;;;-1.00;49.20;;;;;;5070739;28;39199;-82
2021/01/15 04:44:36;;;;;;;6.40;3.97;;;-1.00;49.30;;;;;;5052403;28;36892;-82
2021/01/15 04:47:03;;;;;;;7.00;3.77;;;-1.00;49.30;;;;;;5066261;28;37340;-81
2021/01/15 04:49:31;;;;;;;7.73;4.70;;;-1.10;49.30;;;;;;5063555;28;39715;-82
2021/01/15 04:52:01;;;;;;;8.40;5.50;;;-1.10;49.30;;;;;;5049591;28;39153;-82
2021/01/15 04:54:36;;;;;;;5.47;3.77;;;-1.10;49.40;;;;;;5070998;28;39191;-82
2021/01/15 04:57:08;;;;;;;5.83;4.23;;;-1.10;49.50;;;;;;5068478;28;38151;-83
2021/01/15 04:59:43;;;;;;;4.53;3.80;;;-1.10;49.70;;;;;;5058661;28;39579;-82
2021/01/15 05:02:11;;;;;;;5.70;4.17;;;-1.10;49.60;;;;;;5067008;28;38981;-83
2021/01/15 05:04:38;;;;;;;6.30;3.90;;;-1.10;49.40;;;;;;5072902;28;38211;-82
2021/01/15 05:07:09;;;;;;;6.10;4.63;;;-1.10;50.10;;;;;;5073745;28;37040;-82
2021/01/15 05:09:41;;;;;;;6.70;4.20;;;-1.20;49.60;;;;;;5052987;28;38770;-83
2021/01/15 05:12:13;;;;;;;5.57;4.50;;;-1.10;49.50;;;;;;5052736;28;39727;-82
2021/01/15 05:14:43;;;;;;;7.67;4.00;;;-1.20;49.40;;;;;;5072245;28;37843;-82
2021/01/15 05:17:10;;;;;;;5.97;4.40;;;-1.20;49.60;;;;;;5071116;28;37940;-82
2021/01/15 05:19:39;;;;;;;6.47;4.07;;;-1.20;49.60;;;;;;5072831;28;39711;-82
2021/01/15 05:22:10;;;;;;;6.27;4.70;;;-1.20;49.60;;;;;;5069703;28;39610;-82
2021/01/15 05:24:38;;;;;;;5.90;4.63;;;-1.40;49.70;;;;;;5074247;28;37699;-82
2021/01/15 05:30:17;;;;;;;6.43;4.97;;;-1.40;50.00;;;;;;5072561;28;39347;-83
2021/01/15 05:32:45;;;;;;;6.83;4.90;;;-1.50;50.10;;;;;;5052501;28;37610;-83
2021/01/15 05:35:13;;;;;;;6.10;4.17;;;-1.50;50.30;;;;;;5055948;28;37746;-83
2021/01/15 05:37:41;;;;;;;6.40;4.93;;;-1.60;50.30;;;;;;5072857;28;37490;-83
2021/01/15 05:40:09;;;;;;;5.23;4.73;;;-1.60;50.50;;;;;;5065825;28;40433;-83
2021/01/15 05:42:49;;;;;;;7.53;5.20;;;-1.70;50.60;;;;;;5074168;28;39806;-83
2021/01/15 05:45:17;;;;;;;6.67;4.30;;;-1.70;51.00;;;;;;5068417;28;37204;-84
2021/01/15 05:47:46;;;;;;;8.00;5.17;;;-1.70;50.70;;;;;;5056755;28;36043;-81
2021/01/15 05:50:14;;;;;;;5.10;4.60;;;-1.70;50.90;;;;;;5071516;28;39429;-83
2021/01/15 05:52:55;;;;;;;6.00;4.67;;;-1.80;50.90;;;;;;5060724;28;38885;-82
2021/01/15 05:55:23;;;;;;;5.53;4.70;;;-1.90;50.90;;;;;;5071951;28;38630;-83
2021/01/15 05:57:52;;;;;;;6.10;5.43;;;-1.90;51.20;;;;;;5049412;28;35810;-83
2021/01/15 06:00:41;;;;;;;8.07;5.50;;;-1.90;51.30;;;;;;5072105;28;40413;-82
2021/01/15 06:03:09;;;;;;;8.33;5.57;;;-1.90;51.50;;;;;;5066077;28;39616;-83
2021/01/15 06:05:38;;;;;;;7.47;5.30;;;-1.90;51.20;;;;;;5059527;28;38755;-82
2021/01/15 06:08:05;;;;;;;7.40;5.90;;;-1.90;51.20;;;;;;5067202;28;38179;-83
2021/01/15 06:10:44;;;;;;;8.43;6.33;;;-2.00;51.30;;;;;;5067737;28;39951;-82
2021/01/15 06:13:32;;;;;;;6.30;4.87;;;-2.00;51.30;;;;;;5038691;28;37792;-83
2021/01/15 06:16:00;;;;;;;7.70;5.40;;;-1.90;51.40;;;;;;5073006;28;37103;-83
2021/01/15 06:18:27;;;;;;;6.67;5.07;;;-2.00;51.30;;;;;;5068039;28;35957;-83
2021/01/15 06:21:07;;;;;;;8.57;5.83;;;-2.10;51.50;;;;;;5054561;28;40460;-83
2021/01/15 06:23:40;;;;;;;7.87;5.50;;;-2.10;51.60;;;;;;5065467;28;39358;-82
2021/01/15 06:26:08;;;;;;;7.03;6.03;;;-2.10;51.30;;;;;;5067967;28;39192;-82
2021/01/15 06:28:37;;;;;;;8.40;5.27;;;-2.10;51.30;;;;;;5072172;28;37772;-82
2021/01/15 06:31:08;;;;;;;8.83;5.00;;;-2.00;51.30;;;;;;5053921;28;38974;-82
2021/01/15 06:33:36;;;;;;;11.40;5.73;;;-2.10;51.10;;;;;;5071233;28;39221;-82
2021/01/15 06:36:05;;;;;;;6.57;5.70;;;-2.00;51.10;;;;;;5071983;28;38458;-82
2021/01/15 06:38:33;;;;;;;6.60;5.40;;;-2.10;51.00;;;;;;5057262;28;37117;-83
2021/01/15 06:41:02;;;;;;;8.77;5.80;;;-2.10;51.20;;;;;;5071491;28;41591;-83
2021/01/15 06:43:30;;;;;;;8.30;5.70;;;-2.20;50.90;;;;;;5052008;28;37956;-83
2021/01/15 06:46:00;;;;;;;8.37;5.47;;;-2.20;51.20;;;;;;5057697;28;36975;-83
2021/01/15 06:48:31;;;;;;;8.83;6.03;;;-2.30;51.30;;;;;;5047635;28;36362;-83
2021/01/15 06:51:02;;;;;;;10.23;5.80;;;-2.20;51.30;;;;;;5071592;28;39729;-82
2021/01/15 06:53:31;;;;;;;7.37;5.53;;;-2.20;51.10;;;;;;5071259;28;38769;-82
2021/01/15 06:55:59;;;;;;;8.43;5.80;;;-2.30;51.20;;;;;;5060190;28;37693;-82
2021/01/15 06:58:28;;;;;;;6.60;5.17;;;-2.30;51.20;;;;;;5053534;28;35919;-81
2021/01/15 07:01:19;;;;;;;7.53;4.80;;;-2.30;51.10;;;;;;5067910;28;39809;-82
2021/01/15 07:04:09;;;;;;;8.73;6.27;;;-2.30;50.90;;;;;;5072136;28;39777;-82
2021/01/15 07:06:37;;;;;;;7.60;5.77;;;-2.30;50.90;;;;;;5064578;28;37442;-83
2021/01/15 07:09:06;;;;;;;6.90;5.60;;;-2.30;50.80;;;;;;5076315;28;37021;-81
2021/01/15 07:11:34;;;;;;;7.33;5.47;;;-2.30;50.70;;;;;;5069537;28;40956;-82
2021/01/15 07:14:03;;;;;;;6.97;5.73;;;-2.30;50.50;;;;;;5072592;28;39387;-82
2021/01/15 07:16:32;;;;;;;9.50;6.43;;;-2.20;50.50;;;;;;5056231;28;37093;-83
2021/01/15 07:19:15;;;;;;;7.60;5.80;;;-2.20;50.50;;;;;;5050987;28;36866;-82
2021/01/15 07:22:08;;;;;;;6.87;5.13;;;-2.20;50.40;;;;;;5066579;28;39918;-85
2021/01/15 07:24:37;;;;;;;7.90;5.97;;;-2.30;50.50;;;;;;5063415;28;39042;-83
2021/01/15 07:27:05;;;;;;;7.97;6.60;;;-2.40;50.70;;;;;;5073843;28;37987;-83
2021/01/15 07:29:40;;;;;;;8.83;6.00;;;-2.40;50.80;;;;;;5073290;28;37088;-84
2021/01/15 07:32:16;;;;;;;8.73;6.70;;;-2.30;51.10;;;;;;5063078;28;40303;-83
2021/01/15 07:34:49;;;;;;;8.97;5.80;;;-2.20;50.90;;;;;;5069700;28;38722;-83
2021/01/15 07:37:25;;;;;;;8.73;6.37;;;-2.10;50.50;;;;;;5069248;28;38585;-83
2021/01/15 07:40:06;;;;;;;7.77;5.57;;;-2.10;50.50;;;;;;5070350;28;37384;-83
2021/01/15 07:42:48;;;;;;;7.83;5.10;;;-2.00;50.60;;;;;;5063740;28;40468;-83
2021/01/15 07:45:50;;;;;;;7.20;5.30;;;-2.00;50.20;;;;;;5050809;28;37941;-83
2021/01/15 07:48:19;;;;;;;12.67;7.27;;;-1.90;50.30;;;;;;5067212;28;37923;-83
2021/01/15 07:50:48;;;;;;;8.80;5.80;;;-1.80;49.50;;;;;;5051192;28;36825;-83
2021/01/15 07:53:28;;;;;;;10.80;6.10;;;-1.70;49.70;;;;;;5070277;28;40738;-83
2021/01/15 07:55:56;;;;;;;8.67;5.97;;;-1.50;49.40;;;;;;5067423;28;38782;-83
2021/01/15 07:58:25;;;;;;;7.47;5.60;;;-1.40;49.00;;;;;;5060792;28;38326;-82
2021/01/15 08:01:05;;;;;;;8.73;5.70;;;-1.50;48.90;;;;;;5051837;28;36140;-82
2021/01/15 08:03:40;;;;;;;6.77;5.53;;;-1.50;48.90;;;;;;5049849;28;38423;-81
2021/01/15 08:06:09;;;;;;;8.17;6.03;;;-1.40;48.60;;;;;;5053204;28;38045;-81
2021/01/15 08:08:41;;;;;;;8.20;6.23;;;-1.20;48.60;;;;;;5070702;28;38244;-81
2021/01/15 08:11:12;;;;;;;7.33;5.10;;;-1.20;48.70;;;;;;5072424;28;35918;-81
2021/01/15 08:13:39;;;;;;;6.80;5.60;;;-1.20;48.40;;;;;;5052207;28;38537;-81
2021/01/15 08:16:06;;;;;;;7.97;5.93;;;-1.10;48.40;;;;;;5067813;28;39814;-81
2021/01/15 08:18:34;;;;;;;6.50;5.73;;;-1.10;48.20;;;;;;5067356;28;37581;-81
2021/01/15 08:21:02;;;;;;;8.70;6.23;;;-1.10;48.00;;;;;;5070725;28;37668;-82
2021/01/15 08:23:30;;;;;;;8.50;7.10;;;-1.10;47.90;;;;;;5070351;28;40346;-82
2021/01/15 08:26:30;;;;;;;8.03;5.83;;;-1.10;48.00;;;;;;5068125;28;40311;-80
2021/01/15 08:28:57;;;;;;;14.10;6.27;;;-1.00;47.80;;;;;;4983768;28;38325;-82
2021/01/15 08:31:24;;;;;;;7.93;5.87;;;-0.90;47.80;;;;;;5054276;28;37428;-81
2021/01/15 08:34:09;;;;;;;8.57;6.30;;;-0.90;47.40;;;;;;5068838;28;39943;-81
2021/01/15 08:36:40;;;;;;;8.20;6.20;;;-0.80;46.90;;;;;;5063845;28;39286;-83
2021/01/15 08:39:09;;;;;;;9.87;6.70;;;-0.70;47.30;;;;;;5070302;28;38004;-82
2021/01/15 08:41:36;;;;;;;6.30;5.67;;;-0.70;47.10;;;;;;5056413;28;36170;-82
2021/01/15 08:44:04;;;;;;;7.13;5.57;;;-0.60;47.10;;;;;;5051055;28;40025;-82
2021/01/15 08:46:33;;;;;;;9.37;6.83;;;-0.60;46.90;;;;;;5075125;28;39017;-83
2021/01/15 08:49:06;;;;;;;8.00;6.43;;;-0.60;47.00;;;;;;5077681;28;37840;-82
2021/01/15 08:51:34;;;;;;;10.73;5.67;;;-0.60;47.20;;;;;;5053634;28;36543;-82
2021/01/15 08:54:06;;;;;;;7.93;6.20;;;-0.50;47.90;;;;;;5068583;28;40445;-83
2021/01/15 08:56:35;;;;;;;8.03;6.13;;;-0.50;46.80;;;;;;5056681;28;38168;-83
2021/01/15 08:59:04;;;;;;;8.60;6.33;;;-0.40;46.90;;;;;;5071771;28;37201;-82
2021/01/15 09:01:32;;;;;;;9.43;6.70;;;-0.50;47.20;;;;;;5056688;28;36984;-81
2021/01/15 09:04:04;;;;;;;9.23;7.27;;;-0.50;47.40;;;;;;5077428;28;39627;-82
2021/01/15 09:06:32;;;;;;;11.60;7.10;;;-0.40;47.40;;;;;;5062832;28;39499;-82
2021/01/15 09:09:00;;;;;;;10.43;6.40;;;-0.30;47.30;;;;;;5059895;28;38442;-81
2021/01/15 09:11:29;;;;;;;8.97;5.67;;;-0.30;47.10;;;;;;5070300;28;37847;-82
2021/01/15 09:13:58;;;;;;;8.60;6.53;;;-0.30;47.10;;;;;;5066981;28;39703;-82
2021/01/15 09:16:27;;;;;;;9.70;6.67;;;-0.30;46.80;;;;;;5070299;28;40234;-82
2021/01/15 09:18:57;;;;;;;14.17;7.43;;;-0.30;47.00;;;;;;5073623;28;38325;-82
2021/01/15 09:21:24;;;;;;;9.07;6.43;;;-0.30;47.10;;;;;;5066920;28;35841;-82
2021/01/15 09:23:51;;;;;;;10.60;7.00;;;-0.30;47.00;;;;;;5067365;28;38362;-82
2021/01/15 09:26:19;;;;;;;11.00;6.70;;;-0.30;47.20;;;;;;5076977;28;39338;-82
2021/01/15 09:28:48;;;;;;;11.13;7.07;;;-0.30;47.30;;;;;;5068883;28;37951;-83
2021/01/15 09:31:18;;;;;;;10.23;6.03;;;-0.20;47.50;;;;;;5064183;28;37117;-83
2021/01/15 09:33:48;;;;;;;13.23;7.00;;;-0.20;47.10;;;;;;5070859;28;40708;-83
2021/01/15 09:36:26;;;;;;;10.60;6.40;;;-0.10;47.10;;;;;;5057037;28;37769;-83
2021/01/15 09:38:56;;;;;;;12.40;7.10;;;0.00;46.90;;;;;;5061381;28;37891;-83
2021/01/15 09:41:24;;;;;;;11.20;7.03;;;0.10;47.10;;;;;;5040010;28;36299;-83
2021/01/15 09:43:53;;;;;;;9.53;6.47;;;0.20;47.20;;;;;;5076082;28;39668;-83
2021/01/15 09:46:23;;;;;;;7.90;6.00;;;0.70;47.60;;;;;;5071867;28;39106;-83
2021/01/15 09:48:51;;;;;;;9.77;6.23;;;2.10;46.70;;;;;;5069405;28;37176;-82
2021/01/15 09:51:20;;;;;;;9.47;5.50;;;4.00;43.40;;;;;;5074742;28;37711;-84
2021/01/15 09:53:48;;;;;;;8.80;5.80;;;5.80;37.70;;;;;;5074797;28;40458;-84
2021/01/15 09:56:25;;;;;;;8.83;6.10;;;7.20;35.00;;;;;;5076665;28;38922;-84
2021/01/15 09:58:57;;;;;;;6.50;5.10;;;8.50;33.30;;;;;;5051256;28;37047;-84
2021/01/15 10:01:27;;;;;;;6.77;5.77;;;9.50;30.00;;;;;;5072074;28;37648;-83
2021/01/15 10:03:55;;;;;;;7.27;6.10;;;10.00;28.50;;;;;;5074154;28;40955;-83
2021/01/15 10:06:23;;;;;;;8.20;5.87;;;10.20;28.10;;;;;;5074404;28;39040;-85
2021/01/15 10:08:50;;;;;;;6.70;5.63;;;10.40;27.90;;;;;;5059140;28;37431;-84
2021/01/15 10:11:22;;;;;;;6.47;5.30;;;10.80;27.20;;;;;;5073210;28;37977;-83
2021/01/15 10:13:50;;;;;;;7.47;5.83;;;10.70;27.00;;;;;;5080038;28;39690;-82
2021/01/15 10:16:17;;;;;;;6.27;5.67;;;10.50;26.70;;;;;;5063010;28;38028;-82
2021/01/15 10:18:45;;;;;;;7.27;5.83;;;10.40;26.60;;;;;;5081345;28;38360;-83
2021/01/15 10:21:14;;;;;;;5.50;5.00;;;10.50;26.70;;;;;;5070000;28;38025;-83
2021/01/15 10:23:41;;;;;;;6.00;5.40;;;10.60;26.10;;;;;;5085393;28;39329;-82
2021/01/15 10:26:10;;;;;;;8.03;5.90;;;10.10;26.60;;;;;;5079471;28;39016;-82
2021/01/15 10:28:37;;;;;;;7.10;5.53;;;9.50;27.80;;;;;;5065565;28;35693;-82
2021/01/15 10:31:04;;;;;;;8.00;5.80;;;9.40;28.00;;;;;;5068967;28;37125;-82
2021/01/15 10:33:31;;;;;;;8.70;6.57;;;8.90;28.30;;;;;;5066668;28;39924;-82
2021/01/15 10:35:59;;;;;;;15.37;6.97;;;8.20;29.00;;;;;;5075801;28;38965;-81
2021/01/15 10:38:26;;;;;;;13.20;5.87;;;7.40;29.60;;;;;;5076474;28;37060;-81
2021/01/15 10:40:53;;;;;;;11.63;6.80;;;6.70;30.30;;;;;;5072823;28;37036;-81
2021/01/15 10:43:20;;;;;;;6.70;6.00;;;6.30;31.50;;;;;;5064413;28;39774;-81
2021/01/15 10:45:48;;;;;;;10.57;5.73;;;6.40;31.80;;;;;;5074795;28;39837;-81
2021/01/15 10:48:15;;;;;;;9.23;6.43;;;6.40;31.90;;;;;;5056166;28;38741;-81
2021/01/15 10:50:42;;;;;;;8.97;6.30;;;6.30;31.50;;;;;;5066187;28;36729;-81
2021/01/15 10:53:10;;;;;;;6.73;6.03;;;6.40;31.60;;;;;;5057131;28;38293;-80
2021/01/15 10:55:37;;;;;;;7.17;6.00;;;6.20;31.90;;;;;;5055055;28;38249;-81
2021/01/15 10:58:05;;;;;;;8.17;5.53;;;6.30;32.00;;;;;;5071005;28;37945;-82
2021/01/15 11:00:34;;;;;;;8.43;6.33;;;6.30;32.30;;;;;;5057813;28;36802;-81
2021/01/15 11:03:01;;;;;;;7.23;6.00;;;6.10;32.20;;;;;;5072679;28;40006;-81
2021/01/15 11:05:28;;;;;;;11.30;6.30;;;6.10;31.80;;;;;;5052409;28;37880;-82
2021/01/15 11:07:55;;;;;;;9.43;6.50;;;6.10;32.60;;;;;;5075467;28;37422;-81
2021/01/15 11:10:23;;;;;;;9.20;6.07;;;5.90;32.70;;;;;;5056339;28;38186;-81
2021/01/15 11:12:50;;;;;;;6.80;6.10;;;5.60;33.00;;;;;;5064992;28;39541;-82
2021/01/15 11:15:17;;;;;;;6.87;5.43;;;5.30;33.10;;;;;;5076065;28;39118;-83
2021/01/15 11:17:44;;;;;;;7.43;5.63;;;4.90;33.20;;;;;;5061519;28;36743;-84
2021/01/15 11:20:12;;;;;;;7.00;5.40;;;4.40;34.30;;;;;;5072554;28;35837;-82
2021/01/15 11:22:39;;;;;;;7.97;5.60;;;4.20;34.80;;;;;;5078749;28;39822;-82
2021/01/15 11:25:07;;;;;;;7.70;6.13;;;4.20;34.70;;;;;;5076901;28;39523;-82
2021/01/15 11:27:36;;;;;;;7.40;5.30;;;4.00;35.60;;;;;;5079279;28;38784;-82
2021/01/15 11:30:04;;;;;;;6.70;5.17;;;3.80;36.00;;;;;;5077835;28;37864;-82
2021/01/15 11:32:31;;;;;;;7.90;5.77;;;3.70;35.90;;;;;;5073510;28;39551;-83
2021/01/15 11:34:58;;;;;;;7.50;6.03;;;3.70;36.30;;;;;;5088758;28;39229;-83
2021/01/15 11:37:25;;;;;;;6.63;5.83;;;3.60;36.50;;;;;;5077472;28;38414;-83
2021/01/15 11:39:52;;;;;;;7.57;5.33;;;3.60;36.70;;;;;;5074324;28;37114;-85
2021/01/15 11:42:19;;;;;;;12.10;5.50;;;3.70;36.70;;;;;;5073164;28;38246;-84
2021/01/15 11:44:47;;;;;;;6.57;5.20;;;3.70;37.10;;;;;;5057504;28;37573;-84
2021/01/15 11:47:14;;;;;;;10.83;5.30;;;3.50;36.00;;;;;;5074876;28;38720;-84
2021/01/15 11:49:41;;;;;;;10.53;6.30;;;3.40;37.10;;;;;;5073942;28;37525;-84
2021/01/15 11:52:08;;;;;;;10.13;5.70;;;3.20;37.30;;;;;;5070543;28;39851;-84
2021/01/15 11:54:38;;;;;;;11.43;5.03;;;3.10;37.60;;;;;;5064786;28;39565;-83
2021/01/15 11:57:05;;;;;;;7.33;6.30;;;3.10;37.60;;;;;;5053489;28;36370;-84
2021/01/15 11:59:32;;;;;;;10.30;5.93;;;3.10;37.60;;;;;;5056446;28;35824;-86
2021/01/15 12:02:00;;;;;;;9.00;5.70;;;3.00;37.60;;;;;;5074410;28;39446;-84
2021/01/15 12:04:27;;;;;;;10.03;5.30;;;2.90;37.50;;;;;;5052694;28;38203;-84
2021/01/15 12:06:55;;;;;;;6.57;5.40;;;2.80;37.70;;;;;;5062639;28;36968;-84
2021/01/15 12:09:24;;;;;;;19.40;6.10;;;2.80;37.90;;;;;;5065596;28;36935;-83
2021/01/15 12:11:51;;;;;;;7.90;4.67;;;2.80;38.10;;;;;;5064055;28;39947;-83
2021/01/15 12:14:18;;;;;;;11.93;5.00;;;2.70;37.40;;;;;;5067885;28;40026;-83
2021/01/15 12:16:45;;;;;;;8.60;4.53;;;2.70;37.10;;;;;;5068205;28;39360;-82
2021/01/15 12:19:13;;;;;;;14.20;5.07;;;2.70;37.20;;;;;;5072450;28;37179;-82
2021/01/15 12:21:40;;;;;;;9.63;5.10;;;2.80;37.70;;;;;;5054707;28;38559;-83
2021/01/15 12:24:08;;;;;;;5.70;5.10;;;2.80;37.40;;;;;;5072088;28;39388;-82
2021/01/15 12:26:40;;;;;;;7.50;5.50;;;2.80;37.60;;;;;;5069546;28;37644;-82
2021/01/15 12:29:10;;;;;;;8.87;5.07;;;2.70;37.50;;;;;;5071023;28;37517;-83
2021/01/15 12:31:37;;;;;;;8.10;5.43;;;2.70;37.60;;;;;;5068639;28;40944;-82
2021/01/15 12:34:54;;;;;;;7.80;5.30;;;2.60;37.90;;;;;;5070821;28;39153;-83
2021/01/15 12:37:26;;;;;;;7.87;5.70;;;2.60;37.90;;;;;;5065824;28;38972;-84
2021/01/15 12:39:53;;;;;;;5.93;4.93;;;2.60;38.50;;;;;;5052682;28;35789;-81
2021/01/15 12:42:21;;;;;;;12.10;6.73;;;2.60;38.20;;;;;;5073182;28;39704;-81
2021/01/15 12:44:48;;;;;;;8.33;5.67;;;2.60;38.80;;;;;;5062672;28;39368;-81
2021/01/15 12:47:15;;;;;;;7.00;4.50;;;2.60;38.00;;;;;;5070033;28;37992;-82
2021/01/15 12:49:43;;;;;;;5.83;4.10;;;2.60;37.40;;;;;;5065340;28;37146;-82
2021/01/15 12:52:10;;;;;;;8.33;5.00;;;2.50;37.70;;;;;;5054342;28;38430;-81
2021/01/15 12:54:38;;;;;;;11.17;5.37;;;2.60;37.60;;;;;;5068868;28;39061;-81
2021/01/15 12:57:07;;;;;;;22.67;10.10;;;2.60;38.00;;;;;;5069806;28;37863;-82
2021/01/15 12:59:34;;;;;;;6.03;4.37;;;2.60;37.80;;;;;;5068654;28;38115;-82
2021/01/15 13:02:01;;;;;;;7.90;5.10;;;2.50;37.30;;;;;;5050624;28;38712;-82
2021/01/15 13:04:30;;;;;;;6.47;4.60;;;2.50;37.70;;;;;;5069098;28;39328;-81
2021/01/15 13:06:57;;;;;;;10.40;4.53;;;2.50;37.80;;;;;;5053149;28;37093;-81
2021/01/15 13:09:26;;;;;;;6.00;4.43;;;2.50;37.80;;;;;;5066203;28;37344;-82